Time;durP1;ratioP1;P1;durP2;ratioP2;P2;SDS_P1;SDS_P2;PMS_P1;PMS_P2;Temp;Humidity;BMP_temperature;BMP_pressure;BME280_temperature;BME280_humidity;BME280_pressure;Samples;Min_cycle;Max_cycle;Signal;HPM_P1;HPM_P2
2022/11/09 00:01:19;;;;;;;12.10;8.27;;;9.60;83.40;;;;;;5005900;28;20045;-60
2022/11/09 00:03:46;;;;;;;12.10;7.93;;;9.60;83.40;;;;;;5002756;28;20041;-61
2022/11/09 00:06:13;;;;;;;10.50;7.80;;;9.70;83.60;;;;;;5000659;28;20137;-63
2022/11/09 00:08:40;;;;;;;12.02;7.32;;;9.70;83.60;;;;;;4998889;28;20034;-61
2022/11/09 00:11:08;;;;;;;11.10;7.93;;;9.70;83.60;;;;;;4996193;28;20057;-62
2022/11/09 00:13:38;;;;;;;10.05;7.25;;;9.60;84.10;;;;;;4999498;28;20124;-62
2022/11/09 00:16:09;;;;;;;10.43;7.68;;;9.60;83.80;;;;;;4997654;28;20022;-63
2022/11/09 00:18:36;;;;;;;10.68;7.18;;;9.70;84.00;;;;;;5000600;28;20425;-61
2022/11/09 00:21:10;;;;;;;12.85;7.63;;;9.60;83.90;;;;;;4999653;28;20033;-61
2022/11/09 00:23:36;;;;;;;9.95;7.35;;;9.70;84.10;;;;;;4999392;28;20509;-61
2022/11/09 00:26:03;;;;;;;11.63;7.68;;;9.70;83.80;;;;;;4997493;28;20041;-62
2022/11/09 00:28:29;;;;;;;11.95;7.65;;;9.70;83.90;;;;;;4997532;28;20266;-59
2022/11/09 00:31:02;;;;;;;10.73;6.95;;;9.60;83.90;;;;;;5001621;28;20065;-62
2022/11/09 00:33:28;;;;;;;10.90;7.55;;;9.70;84.10;;;;;;4997009;28;20068;-60
2022/11/09 00:35:54;;;;;;;12.73;7.57;;;9.70;83.90;;;;;;5000259;28;20034;-61
2022/11/09 00:38:20;;;;;;;10.88;7.35;;;9.70;83.80;;;;;;5003227;28;20034;-63
2022/11/09 00:40:45;;;;;;;10.25;7.10;;;9.70;83.80;;;;;;4999516;28;20049;-59
2022/11/09 00:43:11;;;;;;;12.00;7.30;;;9.70;83.80;;;;;;5001516;28;20030;-62
2022/11/09 00:45:37;;;;;;;12.70;7.20;;;9.70;83.70;;;;;;4997598;28;20080;-62
2022/11/09 00:48:02;;;;;;;9.73;7.13;;;9.70;83.70;;;;;;5002157;28;20030;-61
2022/11/09 00:50:28;;;;;;;11.13;7.82;;;9.70;83.60;;;;;;5001350;28;20125;-61
2022/11/09 00:52:54;;;;;;;11.95;7.65;;;9.70;83.50;;;;;;5003538;28;20117;-61
2022/11/09 00:55:23;;;;;;;9.63;7.25;;;9.70;83.40;;;;;;5005702;28;20049;-61
2022/11/09 00:57:49;;;;;;;9.98;7.43;;;9.60;83.30;;;;;;5003371;28;20053;-61
2022/11/09 01:00:19;;;;;;;11.05;7.60;;;9.60;83.40;;;;;;5005238;28;20100;-62
2022/11/09 01:02:45;;;;;;;11.98;8.00;;;9.60;83.60;;;;;;5001619;28;20534;-60
2022/11/09 01:05:11;;;;;;;11.30;7.82;;;9.60;83.50;;;;;;5004584;28;20037;-60
2022/11/09 01:07:38;;;;;;;12.45;7.30;;;9.60;83.60;;;;;;5004199;28;20045;-62
2022/11/09 01:10:05;;;;;;;11.65;7.97;;;9.60;83.50;;;;;;5004656;28;20449;-62
2022/11/09 01:12:31;;;;;;;13.13;7.72;;;9.60;83.40;;;;;;5000512;28;20041;-62
2022/11/09 01:14:56;;;;;;;11.75;7.63;;;9.60;83.30;;;;;;5003289;28;20049;-62
2022/11/09 01:17:23;;;;;;;11.45;7.43;;;9.60;83.30;;;;;;5004854;28;20041;-61
2022/11/09 01:19:49;;;;;;;14.00;8.15;;;9.70;83.40;;;;;;5005908;28;20084;-60
2022/11/09 01:22:15;;;;;;;12.52;8.02;;;9.60;83.20;;;;;;5006447;28;20061;-60
2022/11/09 01:24:40;;;;;;;15.45;8.07;;;9.60;83.30;;;;;;5005344;28;20038;-62
2022/11/09 01:27:06;;;;;;;12.15;8.07;;;9.60;83.30;;;;;;5005353;28;20044;-61
2022/11/09 01:29:32;;;;;;;12.43;8.70;;;9.60;83.40;;;;;;5003255;28;20066;-61
2022/11/09 01:31:57;;;;;;;13.48;7.78;;;9.60;83.50;;;;;;5004602;28;20326;-62
2022/11/09 01:34:23;;;;;;;13.57;7.93;;;9.60;83.50;;;;;;5001427;28;20034;-63
2022/11/09 01:36:50;;;;;;;12.32;8.27;;;9.60;83.40;;;;;;4999924;28;20132;-60
2022/11/09 01:39:17;;;;;;;12.55;8.15;;;9.60;83.50;;;;;;5003109;28;20270;-63
2022/11/09 01:41:42;;;;;;;14.38;8.52;;;9.60;83.40;;;;;;5002435;28;20033;-62
2022/11/09 01:44:12;;;;;;;14.45;7.97;;;9.50;83.30;;;;;;5002479;28;20896;-62
2022/11/09 01:46:55;;;;;;;13.02;8.27;;;9.60;83.50;;;;;;5005839;28;20393;-61
2022/11/09 01:49:26;;;;;;;11.20;7.47;;;9.50;83.60;;;;;;5005934;28;20524;-62
2022/11/09 01:52:03;;;;;;;13.43;8.27;;;9.50;83.60;;;;;;5005135;28;20038;-60
2022/11/09 01:54:33;;;;;;;12.52;7.70;;;9.50;83.70;;;;;;5008297;28;20038;-61
2022/11/09 01:57:02;;;;;;;11.27;7.65;;;9.50;83.40;;;;;;5008166;28;20030;-61
2022/11/09 01:59:36;;;;;;;12.27;8.02;;;9.50;83.40;;;;;;5006997;28;20033;-62
2022/11/09 02:02:03;;;;;;;12.50;7.47;;;9.40;83.40;;;;;;5004462;28;20189;-62
2022/11/09 02:04:37;;;;;;;14.65;9.52;;;9.40;83.50;;;;;;5006359;28;20041;-62
2022/11/09 02:07:03;;;;;;;18.10;10.68;;;9.40;83.60;;;;;;5004473;28;20101;-62
2022/11/09 02:09:55;;;;;;;17.27;11.07;;;9.40;83.40;;;;;;5004248;28;20120;-61
2022/11/09 02:12:21;;;;;;;18.50;10.70;;;9.30;83.70;;;;;;4995892;28;20033;-64
2022/11/09 02:14:49;;;;;;;20.17;11.20;;;9.30;83.40;;;;;;5001640;28;20046;-61
2022/11/09 02:17:16;;;;;;;19.25;11.23;;;9.30;83.30;;;;;;5003773;28;20034;-61
2022/11/09 02:19:42;;;;;;;18.50;11.10;;;9.40;83.30;;;;;;5003261;28;20037;-62
2022/11/09 02:22:07;;;;;;;15.30;10.13;;;9.30;83.10;;;;;;5003968;28;20045;-62
2022/11/09 02:24:33;;;;;;;17.88;10.75;;;9.30;82.90;;;;;;5002498;28;20045;-62
2022/11/09 02:26:59;;;;;;;16.77;10.07;;;9.30;83.40;;;;;;5006350;28;20492;-63
2022/11/09 02:29:34;;;;;;;15.02;9.25;;;9.30;82.80;;;;;;5006399;28;20158;-62
2022/11/09 02:32:04;;;;;;;13.25;8.75;;;9.30;83.00;;;;;;5003667;28;20117;-62
2022/11/09 02:34:30;;;;;;;12.75;7.55;;;9.30;82.90;;;;;;5003550;28;20034;-62
2022/11/09 02:36:55;;;;;;;12.75;7.10;;;9.20;82.80;;;;;;5002787;28;20490;-63
2022/11/09 02:39:24;;;;;;;11.80;7.25;;;9.20;83.00;;;;;;5004529;28;20038;-62
2022/11/09 02:42:12;;;;;;;11.45;7.35;;;9.20;83.30;;;;;;5006463;28;20088;-63
2022/11/09 02:44:43;;;;;;;10.77;7.15;;;9.10;83.80;;;;;;5001303;28;20046;-63
2022/11/09 02:47:09;;;;;;;11.57;7.57;;;9.10;83.60;;;;;;5000602;28;20387;-63
2022/11/09 02:49:35;;;;;;;11.55;7.10;;;9.10;83.70;;;;;;5004592;28;20049;-61
2022/11/09 02:52:00;;;;;;;11.55;7.55;;;9.10;83.80;;;;;;5001490;28;20469;-60
2022/11/09 02:54:26;;;;;;;11.75;7.40;;;9.10;84.00;;;;;;5002370;28;20052;-62
2022/11/09 02:56:51;;;;;;;14.40;8.85;;;9.10;84.10;;;;;;4999272;28;20034;-60
2022/11/09 02:59:17;;;;;;;13.63;8.40;;;9.10;84.00;;;;;;5003275;28;20522;-61
2022/11/09 03:01:42;;;;;;;12.32;7.60;;;9.00;84.00;;;;;;4999972;28;20045;-61
2022/11/09 03:04:08;;;;;;;13.30;7.25;;;9.10;84.10;;;;;;5003355;28;20038;-62
2022/11/09 03:06:34;;;;;;;9.05;7.20;;;9.00;84.30;;;;;;5000169;28;20060;-60
2022/11/09 03:09:04;;;;;;;9.55;6.90;;;9.00;84.50;;;;;;5003386;28;20092;-60
2022/11/09 03:11:30;;;;;;;11.73;7.90;;;8.90;84.70;;;;;;5001115;28;20402;-60
2022/11/09 03:13:56;;;;;;;12.13;8.27;;;9.00;84.80;;;;;;5001404;28;20038;-61
2022/11/09 03:16:22;;;;;;;9.73;6.97;;;9.00;85.00;;;;;;5001884;28;20164;-62
2022/11/09 03:18:48;;;;;;;11.07;7.07;;;8.90;84.80;;;;;;5001795;28;20565;-62
2022/11/09 03:21:13;;;;;;;9.43;7.15;;;8.90;84.90;;;;;;5004263;28;20092;-61
2022/11/09 03:23:39;;;;;;;13.23;7.57;;;8.90;84.80;;;;;;5001630;28;20038;-62
2022/11/09 03:26:05;;;;;;;9.60;6.75;;;9.00;84.90;;;;;;5000108;28;20038;-60
2022/11/09 03:28:30;;;;;;;11.40;6.38;;;9.00;85.90;;;;;;5003301;28;20044;-61
2022/11/09 03:30:56;;;;;;;9.63;6.30;;;9.00;85.00;;;;;;5004340;28;20529;-58
2022/11/09 03:33:22;;;;;;;7.97;6.63;;;8.90;84.90;;;;;;4998209;28;20568;-62
2022/11/09 03:35:48;;;;;;;8.85;6.68;;;9.00;85.00;;;;;;5004392;28;20124;-61
2022/11/09 03:38:13;;;;;;;9.55;7.38;;;8.90;85.00;;;;;;5001460;28;20599;-63
2022/11/09 03:40:39;;;;;;;12.10;6.82;;;9.00;85.20;;;;;;5000994;28;20046;-61
2022/11/09 03:43:04;;;;;;;9.68;7.43;;;9.00;85.30;;;;;;5002065;28;20481;-61
2022/11/09 03:45:30;;;;;;;10.48;7.32;;;9.00;85.30;;;;;;5003184;28;20448;-63
2022/11/09 03:47:58;;;;;;;9.55;6.70;;;9.00;85.40;;;;;;5000511;28;20121;-60
2022/11/09 03:50:25;;;;;;;9.13;6.25;;;9.00;85.50;;;;;;5003455;28;20056;-63
2022/11/09 03:52:51;;;;;;;9.90;6.55;;;9.00;85.50;;;;;;5004245;28;20774;-60
2022/11/09 03:55:16;;;;;;;8.88;6.68;;;9.00;85.60;;;;;;5005316;28;20133;-62
2022/11/09 03:57:44;;;;;;;9.80;6.15;;;9.00;85.60;;;;;;5006383;28;20508;-63
2022/11/09 04:00:12;;;;;;;8.85;6.43;;;9.00;85.60;;;;;;5006986;28;20049;-61
2022/11/09 04:02:37;;;;;;;9.70;6.72;;;9.00;85.50;;;;;;5005981;28;20557;-61
2022/11/09 04:05:04;;;;;;;7.55;6.20;;;9.00;85.50;;;;;;5004392;28;20053;-61
2022/11/09 04:07:30;;;;;;;10.45;6.70;;;9.10;85.50;;;;;;4998772;28;20127;-62
2022/11/09 04:09:55;;;;;;;9.48;6.22;;;9.10;85.60;;;;;;4998995;28;20121;-62
2022/11/09 04:12:21;;;;;;;8.88;5.85;;;9.10;85.70;;;;;;5004011;28;20032;-61
2022/11/09 04:14:47;;;;;;;8.35;6.00;;;9.10;85.80;;;;;;5006766;28;20823;-62
2022/11/09 04:17:12;;;;;;;9.98;6.25;;;9.10;85.90;;;;;;5006872;28;20041;-62
2022/11/09 04:19:38;;;;;;;9.77;6.60;;;9.10;85.90;;;;;;5007430;28;20083;-63
2022/11/09 04:22:03;;;;;;;9.23;6.43;;;9.10;86.00;;;;;;5006400;28;20128;-60
2022/11/09 04:24:29;;;;;;;10.70;7.05;;;9.10;86.00;;;;;;5006672;28;20030;-63
2022/11/09 04:26:54;;;;;;;8.30;6.20;;;9.10;86.20;;;;;;5006360;28;20041;-61
2022/11/09 04:29:20;;;;;;;11.90;6.90;;;9.10;86.20;;;;;;5005684;28;20119;-60
2022/11/09 04:31:48;;;;;;;9.05;5.93;;;9.20;86.40;;;;;;5006539;28;20401;-59
2022/11/09 04:34:14;;;;;;;23.58;14.60;;;9.20;86.40;;;;;;5006332;28;20105;-62
2022/11/09 04:36:39;;;;;;;79.88;55.28;;;9.20;86.40;;;;;;5006065;28;20292;-61
2022/11/09 04:39:05;;;;;;;22.13;15.30;;;9.30;86.60;;;;;;5006214;28;20030;-61
2022/11/09 04:41:30;;;;;;;16.77;11.10;;;9.30;86.60;;;;;;5005323;28;20041;-61
2022/11/09 04:43:56;;;;;;;15.50;13.68;;;9.30;86.60;;;;;;5002952;28;20565;-60
2022/11/09 04:46:22;;;;;;;13.35;10.32;;;9.40;86.60;;;;;;5003039;28;20046;-61
2022/11/09 04:48:47;;;;;;;13.45;9.25;;;9.40;86.60;;;;;;5004815;28;20045;-62
2022/11/09 04:51:13;;;;;;;10.75;7.63;;;9.40;86.50;;;;;;5005971;28;20034;-62
2022/11/09 04:53:39;;;;;;;10.75;6.85;;;9.50;86.60;;;;;;5003460;28;20034;-61
2022/11/09 04:56:06;;;;;;;9.15;6.80;;;9.50;86.70;;;;;;5004570;28;20301;-61
2022/11/09 04:58:32;;;;;;;8.93;6.07;;;9.50;86.60;;;;;;5002479;28;20487;-60
2022/11/09 05:01:10;;;;;;;6.70;5.38;;;9.60;86.60;;;;;;5006175;28;20240;-62
2022/11/09 05:03:36;;;;;;;7.15;5.43;;;9.60;86.60;;;;;;5004852;28;20038;-62
2022/11/09 05:06:30;;;;;;;7.75;6.30;;;9.60;86.40;;;;;;5005327;28;20050;-61
2022/11/09 05:08:48;;;;;;;8.80;5.68;;;9.60;86.30;;;;;;5006327;28;20038;-61
2022/11/09 05:11:14;;;;;;;7.50;5.45;;;9.60;86.30;;;;;;4998339;28;20040;-63
2022/11/09 05:13:39;;;;;;;5.70;4.63;;;9.70;86.30;;;;;;4996973;28;20029;-60
2022/11/09 05:16:05;;;;;;;6.25;4.88;;;9.70;86.40;;;;;;4998133;28;20038;-62
2022/11/09 05:18:31;;;;;;;6.68;5.03;;;9.70;86.20;;;;;;4999054;28;20413;-61
2022/11/09 05:21:00;;;;;;;7.20;4.75;;;9.80;86.20;;;;;;5003792;28;20050;-62
2022/11/09 05:26:10;;;;;;;7.47;4.75;;;9.90;86.40;;;;;;5002952;28;20089;-61
2022/11/09 05:28:36;;;;;;;5.75;4.50;;;9.90;86.40;;;;;;5003836;28;20552;-61
2022/11/09 05:31:02;;;;;;;6.32;3.92;;;9.90;86.50;;;;;;5007604;28;20041;-63
2022/11/09 05:33:27;;;;;;;4.28;3.40;;;9.90;86.50;;;;;;5008381;28;20054;-62
2022/11/09 05:35:54;;;;;;;4.20;3.35;;;10.00;86.60;;;;;;5009393;28;20498;-61
2022/11/09 05:38:20;;;;;;;3.85;3.10;;;10.00;86.60;;;;;;5007786;28;20494;-61
2022/11/09 05:40:50;;;;;;;3.10;2.63;;;10.00;86.60;;;;;;5008087;28;20519;-62
2022/11/09 05:43:15;;;;;;;5.30;2.75;;;10.10;86.90;;;;;;5007987;28;20570;-62
2022/11/09 05:45:41;;;;;;;3.90;2.90;;;10.10;86.70;;;;;;5008262;28;20041;-63
2022/11/09 05:48:07;;;;;;;3.83;2.60;;;10.10;86.70;;;;;;5007121;28;20030;-62
2022/11/09 05:50:34;;;;;;;3.80;3.40;;;10.10;86.90;;;;;;5007819;28;20041;-62
2022/11/09 05:53:00;;;;;;;4.00;3.58;;;10.20;88.00;;;;;;5007975;28;20033;-60
2022/11/09 05:55:26;;;;;;;5.95;3.95;;;10.20;87.00;;;;;;5008890;28;20038;-60
2022/11/09 05:57:52;;;;;;;3.90;3.50;;;10.20;87.00;;;;;;5008747;28;20624;-61
2022/11/09 06:00:18;;;;;;;5.50;3.90;;;10.30;87.00;;;;;;5006582;28;20049;-60
2022/11/09 06:02:43;;;;;;;5.07;4.00;;;10.30;87.00;;;;;;5008443;28;20100;-62
2022/11/09 06:05:09;;;;;;;4.63;3.88;;;10.30;86.90;;;;;;5010020;28;20046;-62
2022/11/09 06:07:35;;;;;;;6.50;4.13;;;10.30;86.80;;;;;;5009831;28;20034;-61
2022/11/09 06:10:00;;;;;;;4.68;4.07;;;10.40;86.90;;;;;;5010170;28;20042;-62
2022/11/09 06:12:26;;;;;;;5.22;4.18;;;10.40;87.00;;;;;;5007053;28;20037;-60
2022/11/09 06:14:52;;;;;;;9.25;6.60;;;10.50;87.10;;;;;;5008865;28;20042;-62
2022/11/09 06:17:17;;;;;;;14.75;9.45;;;10.50;87.10;;;;;;5010088;28;20042;-62
2022/11/09 06:19:43;;;;;;;15.15;10.52;;;10.50;86.90;;;;;;5007647;28;20044;-60
2022/11/09 06:22:09;;;;;;;17.02;9.90;;;10.50;86.90;;;;;;5009528;28;20045;-63
2022/11/09 06:24:34;;;;;;;13.02;9.27;;;10.50;86.90;;;;;;5008406;28;20113;-62
2022/11/09 06:27:01;;;;;;;32.40;19.80;;;10.60;86.90;;;;;;5009351;28;20121;-63
2022/11/09 06:29:26;;;;;;;39.95;23.60;;;10.60;86.90;;;;;;5008453;28;20053;-63
2022/11/09 06:31:52;;;;;;;40.20;24.25;;;10.60;86.80;;;;;;5009398;28;20029;-60
2022/11/09 06:34:17;;;;;;;67.22;37.38;;;10.60;86.90;;;;;;5009069;28;20053;-61
2022/11/09 06:36:43;;;;;;;53.75;31.45;;;10.60;86.90;;;;;;5008200;28;20038;-61
2022/11/09 06:39:09;;;;;;;41.58;23.83;;;10.60;86.90;;;;;;5006417;28;20030;-62
2022/11/09 06:41:35;;;;;;;35.03;19.90;;;10.60;87.00;;;;;;5007408;28;20065;-61
2022/11/09 06:44:01;;;;;;;20.33;12.45;;;10.60;87.10;;;;;;5006625;28;20041;-61
2022/11/09 06:46:26;;;;;;;11.55;7.13;;;10.60;87.30;;;;;;5007991;28;20068;-62
2022/11/09 06:48:52;;;;;;;9.60;6.63;;;10.70;87.70;;;;;;5009365;28;20042;-61
2022/11/09 06:51:18;;;;;;;6.47;4.57;;;10.70;88.00;;;;;;5009096;28;20030;-62
2022/11/09 06:53:43;;;;;;;5.75;3.70;;;10.70;88.10;;;;;;5008210;28;20453;-62
2022/11/09 06:56:09;;;;;;;5.65;3.00;;;10.80;88.50;;;;;;5009302;28;20478;-60
2022/11/09 06:58:36;;;;;;;4.85;3.58;;;10.80;88.70;;;;;;5008049;28;20562;-61
2022/11/09 07:01:14;;;;;;;5.25;3.30;;;10.90;88.90;;;;;;5009048;28;20058;-61
2022/11/09 07:03:39;;;;;;;5.45;3.75;;;10.90;89.10;;;;;;5008165;28;20128;-61
2022/11/09 07:06:07;;;;;;;4.90;3.47;;;11.00;88.50;;;;;;5009156;28;20588;-61
2022/11/09 07:08:34;;;;;;;4.32;3.17;;;11.00;88.30;;;;;;5007633;28;20041;-61
2022/11/09 07:11:07;;;;;;;5.20;3.33;;;11.00;88.30;;;;;;5003845;28;20073;-62
2022/11/09 07:13:32;;;;;;;5.47;3.33;;;11.10;88.50;;;;;;5008093;28;20047;-61
2022/11/09 07:15:58;;;;;;;5.03;3.35;;;11.10;88.30;;;;;;5008290;28;20089;-62
2022/11/09 07:18:24;;;;;;;5.03;3.40;;;11.10;88.40;;;;;;5008695;28;20026;-61
2022/11/09 07:20:50;;;;;;;7.35;4.40;;;11.10;88.40;;;;;;5008047;28;20034;-61
2022/11/09 07:23:15;;;;;;;8.10;4.00;;;11.20;88.50;;;;;;5007870;28;20084;-61
2022/11/09 07:25:41;;;;;;;4.97;3.63;;;11.20;88.50;;;;;;5007028;28;20115;-62
2022/11/09 07:28:08;;;;;;;6.45;3.15;;;11.20;88.50;;;;;;5008026;28;20045;-63
2022/11/09 07:30:35;;;;;;;5.55;3.53;;;11.30;88.50;;;;;;5007850;28;20033;-63
2022/11/09 07:33:01;;;;;;;5.75;3.08;;;11.30;88.60;;;;;;5008130;28;20026;-61
2022/11/09 07:35:27;;;;;;;6.22;2.95;;;11.30;88.50;;;;;;5007673;28;20050;-63
2022/11/09 07:37:52;;;;;;;3.10;2.65;;;11.30;88.40;;;;;;5008393;28;20034;-58
2022/11/09 07:40:18;;;;;;;8.02;2.63;;;11.30;88.50;;;;;;5007746;28;20046;-61
2022/11/09 07:42:44;;;;;;;4.47;2.58;;;11.30;88.30;;;;;;5005924;28;20038;-61
2022/11/09 07:45:10;;;;;;;4.72;2.53;;;11.40;88.30;;;;;;5007402;28;20038;-62
2022/11/09 07:47:36;;;;;;;4.65;2.78;;;11.40;88.30;;;;;;5005836;28;20505;-63
2022/11/09 07:50:02;;;;;;;3.60;2.83;;;11.30;88.30;;;;;;5004584;28;20485;-62
2022/11/09 07:52:28;;;;;;;4.75;2.70;;;11.40;88.40;;;;;;5006617;28;20048;-62
2022/11/09 07:54:53;;;;;;;4.20;3.00;;;11.40;88.40;;;;;;5007138;28;20042;-63
2022/11/09 07:57:19;;;;;;;4.88;3.30;;;11.40;88.30;;;;;;5007981;28;20045;-62
2022/11/09 07:59:44;;;;;;;6.65;3.22;;;11.50;88.10;;;;;;5007890;28;20038;-61
2022/11/09 08:02:10;;;;;;;5.35;3.28;;;11.50;87.90;;;;;;5007727;28;20472;-61
2022/11/09 08:04:36;;;;;;;7.97;3.85;;;11.50;87.70;;;;;;5006970;28;20042;-61
2022/11/09 08:07:01;;;;;;;4.53;3.25;;;11.50;87.50;;;;;;5005518;28;20030;-62
2022/11/09 08:09:27;;;;;;;5.47;3.80;;;11.60;87.40;;;;;;5005146;28;20540;-63
2022/11/09 08:11:52;;;;;;;5.00;3.38;;;11.50;87.00;;;;;;5001939;28;20038;-62
2022/11/09 08:14:18;;;;;;;3.80;3.13;;;11.50;86.90;;;;;;5005452;28;20061;-61
2022/11/09 08:16:44;;;;;;;3.95;3.55;;;11.60;86.80;;;;;;5004750;28;20509;-61
2022/11/09 08:19:09;;;;;;;4.70;3.80;;;11.50;86.60;;;;;;5003860;28;20449;-62
2022/11/09 08:21:36;;;;;;;5.95;3.78;;;11.50;86.50;;;;;;5005272;28;20125;-61
2022/11/09 08:24:02;;;;;;;4.97;3.80;;;11.50;86.60;;;;;;5005176;28;20030;-60
2022/11/09 08:26:28;;;;;;;5.10;3.78;;;11.50;86.60;;;;;;5004811;28;20117;-63
2022/11/09 08:28:54;;;;;;;4.55;3.50;;;11.50;86.60;;;;;;5005428;28;20184;-61
2022/11/09 08:31:20;;;;;;;5.80;3.60;;;11.50;87.60;;;;;;5004431;28;20392;-61
2022/11/09 08:33:46;;;;;;;8.43;3.67;;;11.50;86.90;;;;;;5004823;28;20120;-61
2022/11/09 08:36:13;;;;;;;6.45;4.03;;;11.40;87.10;;;;;;5004414;28;20397;-61
2022/11/09 08:38:40;;;;;;;5.18;3.67;;;11.50;87.30;;;;;;5002661;28;20042;-62
2022/11/09 08:41:06;;;;;;;6.32;3.88;;;11.50;87.30;;;;;;5004885;28;20045;-60
2022/11/09 08:43:31;;;;;;;9.85;4.00;;;11.50;87.40;;;;;;5003243;28;20045;-62
2022/11/09 08:45:57;;;;;;;7.55;5.10;;;11.50;87.40;;;;;;5003170;28;20038;-62
2022/11/09 08:48:23;;;;;;;6.28;4.63;;;11.50;87.50;;;;;;5003931;28;20060;-62
2022/11/09 08:50:54;;;;;;;5.50;4.30;;;11.50;87.60;;;;;;5003600;28;20139;-62
2022/11/09 08:53:20;;;;;;;5.32;3.92;;;11.50;88.00;;;;;;5003917;28;20026;-61
2022/11/09 08:55:46;;;;;;;4.85;3.70;;;11.50;88.00;;;;;;5005790;28;20387;-62
2022/11/09 08:58:11;;;;;;;4.50;3.50;;;11.50;88.20;;;;;;5005475;28;20040;-61
2022/11/09 09:00:37;;;;;;;5.65;3.40;;;11.60;88.40;;;;;;5005757;28;20510;-63
2022/11/09 09:03:06;;;;;;;5.22;3.55;;;11.50;88.50;;;;;;5000539;28;20030;-62
2022/11/09 09:05:34;;;;;;;6.80;3.08;;;11.60;88.70;;;;;;5005602;28;20044;-62
2022/11/09 09:08:00;;;;;;;6.25;3.63;;;11.70;89.00;;;;;;5004970;28;20034;-61
2022/11/09 09:10:25;;;;;;;3.67;3.20;;;11.70;89.20;;;;;;5002936;28;20088;-61
2022/11/09 09:12:52;;;;;;;4.88;3.28;;;11.80;89.30;;;;;;5004653;28;20022;-60
2022/11/09 09:15:17;;;;;;;11.85;6.15;;;11.80;89.50;;;;;;5007054;28;20038;-61
2022/11/09 09:17:43;;;;;;;6.90;4.80;;;11.80;89.50;;;;;;5005946;28;20048;-61
2022/11/09 09:20:09;;;;;;;4.35;3.70;;;11.90;89.70;;;;;;5005402;28;20404;-61
2022/11/09 09:22:34;;;;;;;3.35;3.03;;;11.90;89.90;;;;;;5003498;28;20563;-61
2022/11/09 09:25:00;;;;;;;3.08;2.72;;;12.00;90.00;;;;;;5006047;28;20038;-62
2022/11/09 09:27:28;;;;;;;4.53;2.97;;;12.10;90.00;;;;;;5005472;28;20038;-60
2022/11/09 09:29:53;;;;;;;7.05;4.82;;;12.20;90.10;;;;;;5006347;28;20038;-62
2022/11/09 09:32:19;;;;;;;5.35;4.03;;;12.20;90.10;;;;;;5004861;28;20080;-59
2022/11/09 09:34:45;;;;;;;5.07;3.55;;;12.30;90.00;;;;;;5004876;28;20046;-61
2022/11/09 09:37:10;;;;;;;3.08;2.78;;;12.40;89.70;;;;;;4999486;28;20045;-62
2022/11/09 09:39:36;;;;;;;4.90;3.88;;;12.40;89.60;;;;;;5005665;28;20056;-63
2022/11/09 09:42:06;;;;;;;9.70;6.43;;;12.40;89.80;;;;;;5004248;28;20037;-60
2022/11/09 09:44:48;;;;;;;6.97;4.65;;;12.50;90.00;;;;;;5005243;28;20575;-60
2022/11/09 09:47:25;;;;;;;5.00;3.40;;;12.50;90.00;;;;;;5006687;28;20033;-61
2022/11/09 09:49:59;;;;;;;7.28;4.95;;;12.50;89.50;;;;;;5004682;28;20041;-61
2022/11/09 09:52:46;;;;;;;5.37;4.80;;;12.60;89.50;;;;;;5005255;28;20033;-61
2022/11/09 09:55:27;;;;;;;5.18;3.17;;;12.60;90.00;;;;;;5007170;28;20034;-61
2022/11/09 09:57:55;;;;;;;2.70;2.50;;;12.60;90.10;;;;;;5007251;28;20522;-60
2022/11/09 10:00:26;;;;;;;3.45;2.40;;;12.70;90.10;;;;;;5007094;28;20045;-63
2022/11/09 10:02:53;;;;;;;3.13;1.88;;;12.70;90.40;;;;;;5006259;28;20046;-61
2022/11/09 10:05:20;;;;;;;4.15;2.35;;;12.80;90.40;;;;;;5007360;28;20498;-62
2022/11/09 10:08:19;;;;;;;2.72;2.22;;;12.90;90.40;;;;;;5009785;28;20520;-60
2022/11/09 10:10:59;;;;;;;2.35;1.85;;;13.00;90.70;;;;;;5004512;28;20164;-61
2022/11/09 10:13:36;;;;;;;2.35;1.70;;;13.10;90.40;;;;;;5008179;28;20137;-62
2022/11/09 10:16:10;;;;;;;1.67;1.58;;;13.20;90.40;;;;;;5007868;28;20037;-62
2022/11/09 10:19:17;;;;;;;2.10;1.73;;;13.30;90.40;;;;;;5008218;28;20382;-61
2022/11/09 10:22:10;;;;;;;3.50;1.60;;;13.40;90.60;;;;;;5007813;28;20273;-62
2022/11/09 10:24:58;;;;;;;2.72;1.50;;;13.50;90.40;;;;;;5007803;28;20034;-63
2022/11/09 10:27:27;;;;;;;1.90;1.70;;;13.60;90.50;;;;;;5007452;28;20125;-60
2022/11/09 10:29:53;;;;;;;3.08;2.08;;;13.70;90.30;;;;;;5008355;28;20038;-61
2022/11/09 10:32:22;;;;;;;2.20;1.50;;;13.80;90.20;;;;;;5007987;28;20038;-60
2022/11/09 10:35:06;;;;;;;2.03;1.60;;;13.90;90.20;;;;;;5007312;28;20505;-61
2022/11/09 10:37:37;;;;;;;2.13;1.50;;;14.00;90.00;;;;;;5008178;28;20460;-60
2022/11/09 10:40:39;;;;;;;2.10;1.27;;;14.10;89.50;;;;;;5007534;28;20042;-60
2022/11/09 10:43:09;;;;;;;2.05;1.40;;;14.20;89.00;;;;;;4999973;28;20038;-62
2022/11/09 10:45:41;;;;;;;2.33;1.20;;;14.30;88.80;;;;;;5006276;28;20045;-61
2022/11/09 10:48:09;;;;;;;3.22;1.27;;;14.30;88.30;;;;;;5009339;28;20054;-61
2022/11/09 10:50:51;;;;;;;1.00;0.95;;;14.40;88.20;;;;;;5008214;28;20129;-60
2022/11/09 10:53:20;;;;;;;1.50;1.40;;;14.50;88.10;;;;;;5006986;28;20038;-61
2022/11/09 10:56:04;;;;;;;2.28;1.50;;;14.50;88.10;;;;;;5008523;28;20045;-62
2022/11/09 10:58:31;;;;;;;2.63;1.30;;;14.60;88.10;;;;;;5006493;28;20172;-63
2022/11/09 11:01:04;;;;;;;1.98;1.30;;;14.60;87.80;;;;;;5007701;28;20026;-61
2022/11/09 11:03:34;;;;;;;2.83;1.52;;;14.70;87.70;;;;;;5006987;28;20074;-60
2022/11/09 11:06:10;;;;;;;1.85;1.40;;;14.80;87.60;;;;;;5006853;28;20075;-62
2022/11/09 11:08:41;;;;;;;2.38;1.30;;;14.80;87.40;;;;;;5007095;28;20130;-62
2022/11/09 11:11:13;;;;;;;1.45;1.30;;;14.90;86.80;;;;;;5001870;28;20096;-61
2022/11/09 11:13:39;;;;;;;0.98;0.98;;;14.90;86.30;;;;;;5006052;28;20524;-60
2022/11/09 11:16:30;;;;;;;2.10;1.10;;;14.90;86.40;;;;;;5007748;28;20057;-60
2022/11/09 11:18:56;;;;;;;1.58;1.00;;;15.00;86.00;;;;;;5007207;28;20056;-61
2022/11/09 11:21:24;;;;;;;1.65;1.42;;;15.00;85.90;;;;;;5005914;28;20053;-60
2022/11/09 11:24:14;;;;;;;3.20;1.25;;;15.00;85.60;;;;;;5006943;28;20050;-63
2022/11/09 11:26:48;;;;;;;1.75;1.20;;;15.10;84.90;;;;;;5006805;28;20399;-61
2022/11/09 11:29:20;;;;;;;2.42;1.60;;;15.20;85.10;;;;;;5007671;28;20117;-62
2022/11/09 11:31:46;;;;;;;2.58;1.20;;;15.20;85.00;;;;;;5007338;28;20034;-62
2022/11/09 11:34:13;;;;;;;1.80;1.60;;;15.20;85.00;;;;;;5007203;28;20660;-62
2022/11/09 11:36:54;;;;;;;1.83;1.05;;;15.20;84.60;;;;;;5004539;28;20030;-61
2022/11/09 11:39:49;;;;;;;2.03;1.25;;;15.40;84.10;;;;;;5007075;28;20061;-61
2022/11/09 11:42:47;;;;;;;1.00;0.90;;;15.40;83.80;;;;;;4999693;28;20026;-61
2022/11/09 11:45:15;;;;;;;4.00;1.20;;;15.40;83.60;;;;;;5008661;28;20042;-62
2022/11/09 11:47:52;;;;;;;1.40;1.30;;;15.40;83.80;;;;;;5008915;28;20092;-61
2022/11/09 11:50:24;;;;;;;2.15;1.48;;;15.40;83.50;;;;;;5007478;28;20048;-61
2022/11/09 11:53:08;;;;;;;2.00;1.80;;;15.40;83.60;;;;;;5008140;28;20034;-61
2022/11/09 11:56:12;;;;;;;1.30;1.15;;;15.50;83.50;;;;;;5008768;28;20061;-61
2022/11/09 11:59:30;;;;;;;2.58;1.40;;;15.50;83.20;;;;;;5005922;28;20043;-62
2022/11/09 12:01:55;;;;;;;1.13;1.00;;;15.60;83.30;;;;;;4956763;28;20035;-62
2022/11/09 12:04:47;;;;;;;1.13;1.02;;;15.60;83.30;;;;;;4956124;28;20034;-60
2022/11/09 12:07:32;;;;;;;1.45;0.82;;;15.60;82.60;;;;;;4986529;28;20030;-63
2022/11/09 12:10:15;;;;;;;1.60;1.23;;;15.60;82.90;;;;;;5005942;28;20029;-61
2022/11/09 12:12:52;;;;;;;2.47;2.25;;;15.70;82.70;;;;;;5000369;28;20440;-61
2022/11/09 12:15:26;;;;;;;3.13;2.40;;;15.60;83.20;;;;;;5005418;28;20381;-62
2022/11/09 12:18:07;;;;;;;9.63;4.55;;;15.70;83.50;;;;;;5005982;28;20146;-62
2022/11/09 12:21:05;;;;;;;8.65;4.35;;;15.70;83.70;;;;;;5006223;28;20391;-62
2022/11/09 12:23:52;;;;;;;4.70;2.80;;;15.70;83.70;;;;;;5004712;28;20044;-62
2022/11/09 12:26:45;;;;;;;8.90;5.55;;;15.70;83.50;;;;;;5005444;28;20034;-62
2022/11/09 12:29:26;;;;;;;6.63;3.97;;;15.70;83.60;;;;;;5005900;28;20038;-60
2022/11/09 12:32:10;;;;;;;7.47;5.20;;;15.80;83.50;;;;;;5006149;28;20045;-62
2022/11/09 12:35:14;;;;;;;5.22;3.83;;;15.70;83.40;;;;;;5005511;28;20557;-61
2022/11/09 12:38:07;;;;;;;6.53;3.15;;;15.70;83.60;;;;;;5003476;28;20117;-62
2022/11/09 12:40:38;;;;;;;3.42;2.67;;;15.70;83.60;;;;;;5000263;28;20038;-61
2022/11/09 12:43:14;;;;;;;3.20;2.17;;;15.70;83.70;;;;;;5005041;28;20034;-60
2022/11/09 12:45:40;;;;;;;1.10;1.00;;;15.70;83.50;;;;;;5006103;28;20077;-61
2022/11/09 12:48:14;;;;;;;1.30;1.00;;;15.70;82.90;;;;;;5005222;28;20121;-60
2022/11/09 12:50:40;;;;;;;3.00;1.73;;;15.80;81.50;;;;;;5003237;28;20030;-61
2022/11/09 12:53:07;;;;;;;2.25;1.20;;;15.80;81.30;;;;;;5006054;28;20104;-61
2022/11/09 12:55:54;;;;;;;1.27;1.02;;;15.70;81.30;;;;;;5005927;28;20076;-63
2022/11/09 12:58:28;;;;;;;0.80;0.80;;;15.70;81.20;;;;;;5006381;28;20117;-62
2022/11/09 13:00:56;;;;;;;1.20;0.90;;;15.80;81.00;;;;;;5005465;28;20176;-61
2022/11/09 13:03:27;;;;;;;1.55;0.90;;;15.80;81.20;;;;;;5005162;28;20037;-60